sensor_id;sensor_type;location;lat;lon;timestamp;P1;durP1;ratioP1;P2;durP2;ratioP2
38399;SDS011;24180;42.676;23.320;2023-05-19T00:01:42;7.33;;;6.63;;
38399;SDS011;24180;42.676;23.320;2023-05-19T00:04:09;6.53;;;5.97;;
38399;SDS011;24180;42.676;23.320;2023-05-19T00:06:38;8.07;;;7.30;;
38399;SDS011;24180;42.676;23.320;2023-05-19T00:09:06;9.63;;;6.47;;
38399;SDS011;24180;42.676;23.320;2023-05-19T00:11:36;8.20;;;6.40;;
38399;SDS011;24180;42.676;23.320;2023-05-19T00:14:04;7.67;;;6.97;;
38399;SDS011;24180;42.676;23.320;2023-05-19T00:16:32;7.07;;;6.47;;
38399;SDS011;24180;42.676;23.320;2023-05-19T00:18:58;7.20;;;6.50;;
38399;SDS011;24180;42.676;23.320;2023-05-19T00:21:24;8.33;;;7.20;;
38399;SDS011;24180;42.676;23.320;2023-05-19T00:23:50;7.63;;;6.93;;
38399;SDS011;24180;42.676;23.320;2023-05-19T00:26:16;8.30;;;7.03;;
38399;SDS011;24180;42.676;23.320;2023-05-19T00:28:42;7.13;;;6.47;;
38399;SDS011;24180;42.676;23.320;2023-05-19T00:31:07;8.00;;;7.20;;
38399;SDS011;24180;42.676;23.320;2023-05-19T00:33:33;8.10;;;7.40;;
38399;SDS011;24180;42.676;23.320;2023-05-19T00:36:02;7.97;;;7.27;;
38399;SDS011;24180;42.676;23.320;2023-05-19T00:38:31;8.50;;;7.43;;
38399;SDS011;24180;42.676;23.320;2023-05-19T00:40:58;8.87;;;7.40;;
38399;SDS011;24180;42.676;23.320;2023-05-19T00:43:25;8.17;;;7.37;;
38399;SDS011;24180;42.676;23.320;2023-05-19T00:45:50;8.17;;;7.47;;
38399;SDS011;24180;42.676;23.320;2023-05-19T00:48:16;8.33;;;7.53;;
38399;SDS011;24180;42.676;23.320;2023-05-19T00:50:42;9.23;;;8.23;;
38399;SDS011;24180;42.676;23.320;2023-05-19T00:53:08;7.93;;;7.20;;
38399;SDS011;24180;42.676;23.320;2023-05-19T00:55:34;8.20;;;7.50;;
38399;SDS011;24180;42.676;23.320;2023-05-19T00:58:01;9.20;;;8.23;;
38399;SDS011;24180;42.676;23.320;2023-05-19T01:00:28;8.83;;;8.03;;
38399;SDS011;24180;42.676;23.320;2023-05-19T01:03:13;8.53;;;7.63;;
38399;SDS011;24180;42.676;23.320;2023-05-19T01:05:39;8.57;;;7.87;;
38399;SDS011;24180;42.676;23.320;2023-05-19T01:08:06;8.80;;;7.97;;
38399;SDS011;24180;42.676;23.320;2023-05-19T01:10:32;8.97;;;8.07;;
38399;SDS011;24180;42.676;23.320;2023-05-19T01:12:58;9.60;;;8.33;;
38399;SDS011;24180;42.676;23.320;2023-05-19T01:15:25;8.60;;;7.80;;
38399;SDS011;24180;42.676;23.320;2023-05-19T01:25:57;9.77;;;8.97;;
38399;SDS011;24180;42.676;23.320;2023-05-19T01:31:34;9.10;;;8.30;;
38399;SDS011;24180;42.676;23.320;2023-05-19T01:34:01;9.27;;;8.37;;
38399;SDS011;24180;42.676;23.320;2023-05-19T01:36:28;9.80;;;8.70;;
38399;SDS011;24180;42.676;23.320;2023-05-19T01:38:57;10.33;;;9.07;;
38399;SDS011;24180;42.676;23.320;2023-05-19T01:41:23;10.90;;;8.67;;
38399;SDS011;24180;42.676;23.320;2023-05-19T01:43:50;10.93;;;9.00;;
38399;SDS011;24180;42.676;23.320;2023-05-19T01:46:16;12.50;;;9.33;;
38399;SDS011;24180;42.676;23.320;2023-05-19T01:48:44;10.57;;;9.47;;
38399;SDS011;24180;42.676;23.320;2023-05-19T01:51:11;10.03;;;9.03;;
38399;SDS011;24180;42.676;23.320;2023-05-19T01:53:36;10.67;;;9.17;;
38399;SDS011;24180;42.676;23.320;2023-05-19T01:56:02;9.73;;;8.83;;
38399;SDS011;24180;42.676;23.320;2023-05-19T01:58:40;10.87;;;9.43;;
38399;SDS011;24180;42.676;23.320;2023-05-19T02:01:20;11.27;;;9.33;;
38399;SDS011;24180;42.676;23.320;2023-05-19T02:11:59;10.23;;;9.20;;
38399;SDS011;24180;42.676;23.320;2023-05-19T02:14:38;10.47;;;9.47;;
38399;SDS011;24180;42.676;23.320;2023-05-19T02:17:18;14.60;;;9.83;;
38399;SDS011;24180;42.676;23.320;2023-05-19T02:19:44;11.13;;;10.03;;
38399;SDS011;24180;42.676;23.320;2023-05-19T02:22:10;12.03;;;10.77;;
38399;SDS011;24180;42.676;23.320;2023-05-19T02:24:35;10.40;;;9.43;;
38399;SDS011;24180;42.676;23.320;2023-05-19T02:27:02;15.10;;;10.40;;
38399;SDS011;24180;42.676;23.320;2023-05-19T02:29:27;10.87;;;9.77;;
38399;SDS011;24180;42.676;23.320;2023-05-19T02:31:53;11.30;;;10.20;;
38399;SDS011;24180;42.676;23.320;2023-05-19T02:34:18;11.47;;;10.37;;
38399;SDS011;24180;42.676;23.320;2023-05-19T02:36:43;12.03;;;9.47;;
38399;SDS011;24180;42.676;23.320;2023-05-19T02:39:09;12.50;;;10.60;;
38399;SDS011;24180;42.676;23.320;2023-05-19T02:41:36;10.80;;;9.80;;
38399;SDS011;24180;42.676;23.320;2023-05-19T02:44:02;10.70;;;9.70;;
38399;SDS011;24180;42.676;23.320;2023-05-19T02:46:27;10.67;;;9.63;;
38399;SDS011;24180;42.676;23.320;2023-05-19T02:48:52;11.90;;;10.70;;
38399;SDS011;24180;42.676;23.320;2023-05-19T02:51:18;12.30;;;10.37;;
38399;SDS011;24180;42.676;23.320;2023-05-19T02:53:43;11.37;;;10.23;;
38399;SDS011;24180;42.676;23.320;2023-05-19T02:56:09;12.33;;;11.07;;
38399;SDS011;24180;42.676;23.320;2023-05-19T02:58:35;12.70;;;11.40;;
38399;SDS011;24180;42.676;23.320;2023-05-19T03:01:00;12.43;;;11.23;;
38399;SDS011;24180;42.676;23.320;2023-05-19T03:03:26;12.97;;;11.57;;
38399;SDS011;24180;42.676;23.320;2023-05-19T03:05:52;12.60;;;11.30;;
38399;SDS011;24180;42.676;23.320;2023-05-19T03:08:18;12.87;;;11.03;;
38399;SDS011;24180;42.676;23.320;2023-05-19T03:10:47;13.63;;;11.77;;
38399;SDS011;24180;42.676;23.320;2023-05-19T03:13:12;13.40;;;12.00;;
38399;SDS011;24180;42.676;23.320;2023-05-19T03:15:38;13.60;;;11.97;;
38399;SDS011;24180;42.676;23.320;2023-05-19T03:18:03;13.70;;;12.00;;
38399;SDS011;24180;42.676;23.320;2023-05-19T03:20:29;16.17;;;12.80;;
38399;SDS011;24180;42.676;23.320;2023-05-19T03:22:55;14.93;;;11.53;;
38399;SDS011;24180;42.676;23.320;2023-05-19T03:25:21;13.33;;;11.97;;
38399;SDS011;24180;42.676;23.320;2023-05-19T03:27:46;14.50;;;12.13;;
38399;SDS011;24180;42.676;23.320;2023-05-19T03:30:12;17.03;;;12.50;;
38399;SDS011;24180;42.676;23.320;2023-05-19T03:32:37;13.77;;;12.27;;
38399;SDS011;24180;42.676;23.320;2023-05-19T03:35:04;15.30;;;12.40;;
38399;SDS011;24180;42.676;23.320;2023-05-19T03:37:30;14.43;;;12.90;;
38399;SDS011;24180;42.676;23.320;2023-05-19T03:39:56;17.27;;;13.97;;
38399;SDS011;24180;42.676;23.320;2023-05-19T03:42:22;14.07;;;12.67;;
38399;SDS011;24180;42.676;23.320;2023-05-19T03:44:48;14.00;;;12.60;;
38399;SDS011;24180;42.676;23.320;2023-05-19T03:47:13;14.77;;;13.27;;
38399;SDS011;24180;42.676;23.320;2023-05-19T03:49:39;14.23;;;12.73;;
38399;SDS011;24180;42.676;23.320;2023-05-19T03:52:04;13.13;;;11.80;;
38399;SDS011;24180;42.676;23.320;2023-05-19T03:54:30;14.87;;;13.37;;
38399;SDS011;24180;42.676;23.320;2023-05-19T03:56:55;16.20;;;12.60;;
38399;SDS011;24180;42.676;23.320;2023-05-19T03:59:21;14.67;;;13.17;;
38399;SDS011;24180;42.676;23.320;2023-05-19T04:01:47;15.07;;;13.47;;
38399;SDS011;24180;42.676;23.320;2023-05-19T04:04:13;13.50;;;12.10;;
38399;SDS011;24180;42.676;23.320;2023-05-19T04:06:38;14.90;;;11.77;;
38399;SDS011;24180;42.676;23.320;2023-05-19T04:09:09;13.83;;;12.37;;
38399;SDS011;24180;42.676;23.320;2023-05-19T04:11:37;13.67;;;12.37;;
38399;SDS011;24180;42.676;23.320;2023-05-19T04:14:03;14.60;;;13.10;;
38399;SDS011;24180;42.676;23.320;2023-05-19T04:16:29;15.53;;;12.70;;
38399;SDS011;24180;42.676;23.320;2023-05-19T04:18:54;16.17;;;12.93;;
38399;SDS011;24180;42.676;23.320;2023-05-19T04:21:20;14.00;;;12.67;;
38399;SDS011;24180;42.676;23.320;2023-05-19T04:23:46;13.77;;;12.47;;
38399;SDS011;24180;42.676;23.320;2023-05-19T04:26:12;13.13;;;11.73;;
38399;SDS011;24180;42.676;23.320;2023-05-19T04:28:38;13.63;;;12.23;;
38399;SDS011;24180;42.676;23.320;2023-05-19T04:31:06;15.33;;;12.80;;
38399;SDS011;24180;42.676;23.320;2023-05-19T04:33:35;13.37;;;11.50;;
38399;SDS011;24180;42.676;23.320;2023-05-19T04:36:01;12.53;;;11.27;;
38399;SDS011;24180;42.676;23.320;2023-05-19T04:38:29;13.53;;;11.83;;
38399;SDS011;24180;42.676;23.320;2023-05-19T04:40:55;14.07;;;12.77;;
38399;SDS011;24180;42.676;23.320;2023-05-19T04:43:21;13.17;;;11.87;;
38399;SDS011;24180;42.676;23.320;2023-05-19T04:45:46;12.57;;;11.27;;
38399;SDS011;24180;42.676;23.320;2023-05-19T04:48:14;14.97;;;13.37;;
38399;SDS011;24180;42.676;23.320;2023-05-19T04:50:39;13.90;;;12.40;;
38399;SDS011;24180;42.676;23.320;2023-05-19T04:53:07;13.60;;;12.20;;
38399;SDS011;24180;42.676;23.320;2023-05-19T04:55:36;13.00;;;11.60;;
38399;SDS011;24180;42.676;23.320;2023-05-19T04:58:02;13.70;;;10.50;;
38399;SDS011;24180;42.676;23.320;2023-05-19T05:00:28;15.47;;;13.10;;
38399;SDS011;24180;42.676;23.320;2023-05-19T05:02:53;15.57;;;12.47;;
38399;SDS011;24180;42.676;23.320;2023-05-19T05:05:21;15.67;;;13.97;;
38399;SDS011;24180;42.676;23.320;2023-05-19T05:07:47;16.80;;;13.20;;
38399;SDS011;24180;42.676;23.320;2023-05-19T05:10:13;14.30;;;12.77;;
38399;SDS011;24180;42.676;23.320;2023-05-19T05:12:39;14.70;;;12.47;;
38399;SDS011;24180;42.676;23.320;2023-05-19T05:15:05;13.87;;;12.47;;
38399;SDS011;24180;42.676;23.320;2023-05-19T05:17:31;14.33;;;12.87;;
38399;SDS011;24180;42.676;23.320;2023-05-19T05:19:59;12.77;;;11.03;;
38399;SDS011;24180;42.676;23.320;2023-05-19T05:22:25;14.13;;;12.13;;
38399;SDS011;24180;42.676;23.320;2023-05-19T05:24:50;13.47;;;12.03;;
38399;SDS011;24180;42.676;23.320;2023-05-19T05:27:16;13.63;;;12.23;;
38399;SDS011;24180;42.676;23.320;2023-05-19T05:29:42;14.40;;;12.20;;
38399;SDS011;24180;42.676;23.320;2023-05-19T05:32:07;15.10;;;12.43;;
38399;SDS011;24180;42.676;23.320;2023-05-19T05:34:33;14.50;;;13.00;;
38399;SDS011;24180;42.676;23.320;2023-05-19T05:36:59;14.80;;;13.30;;
38399;SDS011;24180;42.676;23.320;2023-05-19T05:39:25;16.13;;;13.13;;
38399;SDS011;24180;42.676;23.320;2023-05-19T05:41:51;13.53;;;12.13;;
38399;SDS011;24180;42.676;23.320;2023-05-19T05:44:17;12.90;;;11.60;;
38399;SDS011;24180;42.676;23.320;2023-05-19T05:46:42;14.07;;;12.53;;
38399;SDS011;24180;42.676;23.320;2023-05-19T05:49:08;17.43;;;13.03;;
38399;SDS011;24180;42.676;23.320;2023-05-19T05:51:34;13.30;;;12.00;;
38399;SDS011;24180;42.676;23.320;2023-05-19T05:54:00;15.33;;;12.77;;
38399;SDS011;24180;42.676;23.320;2023-05-19T05:56:26;14.33;;;12.10;;
38399;SDS011;24180;42.676;23.320;2023-05-19T05:58:52;16.70;;;12.03;;
38399;SDS011;24180;42.676;23.320;2023-05-19T06:01:18;14.50;;;13.00;;
38399;SDS011;24180;42.676;23.320;2023-05-19T06:03:44;14.37;;;12.87;;
38399;SDS011;24180;42.676;23.320;2023-05-19T06:06:10;15.10;;;12.83;;
38399;SDS011;24180;42.676;23.320;2023-05-19T06:08:36;13.73;;;12.20;;
38399;SDS011;24180;42.676;23.320;2023-05-19T06:11:02;13.87;;;11.97;;
38399;SDS011;24180;42.676;23.320;2023-05-19T06:13:33;14.40;;;13.00;;
38399;SDS011;24180;42.676;23.320;2023-05-19T06:15:59;13.00;;;11.67;;
38399;SDS011;24180;42.676;23.320;2023-05-19T06:18:25;13.43;;;11.73;;
38399;SDS011;24180;42.676;23.320;2023-05-19T06:20:50;19.97;;;12.50;;
38399;SDS011;24180;42.676;23.320;2023-05-19T06:23:16;15.90;;;10.47;;
38399;SDS011;24180;42.676;23.320;2023-05-19T06:25:41;12.07;;;10.87;;
38399;SDS011;24180;42.676;23.320;2023-05-19T06:28:06;11.53;;;10.37;;
38399;SDS011;24180;42.676;23.320;2023-05-19T06:30:32;12.33;;;10.43;;
38399;SDS011;24180;42.676;23.320;2023-05-19T06:32:57;15.23;;;10.03;;
38399;SDS011;24180;42.676;23.320;2023-05-19T06:35:23;10.77;;;9.50;;
38399;SDS011;24180;42.676;23.320;2023-05-19T06:37:48;11.27;;;10.17;;
38399;SDS011;24180;42.676;23.320;2023-05-19T06:40:14;11.03;;;9.97;;
38399;SDS011;24180;42.676;23.320;2023-05-19T06:42:39;13.53;;;9.17;;
38399;SDS011;24180;42.676;23.320;2023-05-19T06:45:05;9.17;;;7.70;;
38399;SDS011;24180;42.676;23.320;2023-05-19T06:47:30;8.87;;;7.97;;
38399;SDS011;24180;42.676;23.320;2023-05-19T06:49:56;10.50;;;9.10;;
38399;SDS011;24180;42.676;23.320;2023-05-19T06:52:21;11.13;;;10.03;;
38399;SDS011;24180;42.676;23.320;2023-05-19T06:54:47;9.33;;;8.27;;
38399;SDS011;24180;42.676;23.320;2023-05-19T06:57:13;9.27;;;8.37;;
38399;SDS011;24180;42.676;23.320;2023-05-19T06:59:39;9.53;;;8.63;;
38399;SDS011;24180;42.676;23.320;2023-05-19T07:02:08;10.23;;;9.13;;
38399;SDS011;24180;42.676;23.320;2023-05-19T07:04:34;9.93;;;9.03;;
38399;SDS011;24180;42.676;23.320;2023-05-19T07:07:00;9.13;;;8.20;;
38399;SDS011;24180;42.676;23.320;2023-05-19T07:09:25;9.53;;;8.10;;
38399;SDS011;24180;42.676;23.320;2023-05-19T07:11:51;11.07;;;7.77;;
38399;SDS011;24180;42.676;23.320;2023-05-19T07:14:16;9.23;;;8.40;;
38399;SDS011;24180;42.676;23.320;2023-05-19T07:16:42;9.57;;;8.77;;
38399;SDS011;24180;42.676;23.320;2023-05-19T07:19:07;12.60;;;11.50;;
38399;SDS011;24180;42.676;23.320;2023-05-19T07:21:33;9.60;;;8.80;;
38399;SDS011;24180;42.676;23.320;2023-05-19T07:23:58;9.87;;;8.97;;
38399;SDS011;24180;42.676;23.320;2023-05-19T07:26:23;9.83;;;8.53;;
38399;SDS011;24180;42.676;23.320;2023-05-19T07:28:50;12.67;;;9.90;;
38399;SDS011;24180;42.676;23.320;2023-05-19T07:31:15;11.63;;;9.87;;
38399;SDS011;24180;42.676;23.320;2023-05-19T07:33:41;12.23;;;10.97;;
38399;SDS011;24180;42.676;23.320;2023-05-19T07:36:06;11.20;;;8.87;;
38399;SDS011;24180;42.676;23.320;2023-05-19T07:38:32;13.67;;;12.17;;
38399;SDS011;24180;42.676;23.320;2023-05-19T07:41:00;9.63;;;8.70;;
38399;SDS011;24180;42.676;23.320;2023-05-19T07:43:26;9.63;;;8.80;;
38399;SDS011;24180;42.676;23.320;2023-05-19T07:45:51;9.77;;;8.77;;
38399;SDS011;24180;42.676;23.320;2023-05-19T07:48:17;11.63;;;10.53;;
38399;SDS011;24180;42.676;23.320;2023-05-19T07:50:46;9.83;;;9.03;;
38399;SDS011;24180;42.676;23.320;2023-05-19T07:53:12;12.53;;;11.27;;
38399;SDS011;24180;42.676;23.320;2023-05-19T07:55:38;10.63;;;9.73;;
38399;SDS011;24180;42.676;23.320;2023-05-19T07:58:03;11.30;;;10.30;;
38399;SDS011;24180;42.676;23.320;2023-05-19T08:00:29;11.43;;;10.03;;
38399;SDS011;24180;42.676;23.320;2023-05-19T08:02:55;11.53;;;10.57;;
38399;SDS011;24180;42.676;23.320;2023-05-19T08:05:21;10.70;;;9.47;;
38399;SDS011;24180;42.676;23.320;2023-05-19T08:07:47;13.57;;;12.20;;
38399;SDS011;24180;42.676;23.320;2023-05-19T08:10:12;15.20;;;13.90;;
38399;SDS011;24180;42.676;23.320;2023-05-19T08:12:37;24.20;;;12.17;;
38399;SDS011;24180;42.676;23.320;2023-05-19T08:15:03;10.80;;;9.87;;
38399;SDS011;24180;42.676;23.320;2023-05-19T08:17:29;13.57;;;11.20;;
38399;SDS011;24180;42.676;23.320;2023-05-19T08:19:54;12.23;;;10.93;;
38399;SDS011;24180;42.676;23.320;2023-05-19T08:22:20;13.10;;;11.77;;
38399;SDS011;24180;42.676;23.320;2023-05-19T08:24:45;12.80;;;11.60;;
38399;SDS011;24180;42.676;23.320;2023-05-19T08:27:13;14.80;;;13.37;;
38399;SDS011;24180;42.676;23.320;2023-05-19T08:29:39;14.83;;;13.57;;
38399;SDS011;24180;42.676;23.320;2023-05-19T08:32:05;15.83;;;14.40;;
38399;SDS011;24180;42.676;23.320;2023-05-19T08:34:30;13.33;;;12.03;;
38399;SDS011;24180;42.676;23.320;2023-05-19T08:36:56;14.37;;;12.93;;
38399;SDS011;24180;42.676;23.320;2023-05-19T08:39:22;13.17;;;12.07;;
38399;SDS011;24180;42.676;23.320;2023-05-19T08:41:51;13.13;;;11.83;;
38399;SDS011;24180;42.676;23.320;2023-05-19T08:44:17;13.23;;;12.07;;
38399;SDS011;24180;42.676;23.320;2023-05-19T08:46:43;13.47;;;12.17;;
38399;SDS011;24180;42.676;23.320;2023-05-19T08:49:10;14.37;;;12.87;;
38399;SDS011;24180;42.676;23.320;2023-05-19T08:51:38;13.37;;;12.13;;
38399;SDS011;24180;42.676;23.320;2023-05-19T08:54:11;13.80;;;11.90;;
38399;SDS011;24180;42.676;23.320;2023-05-19T08:56:39;14.53;;;12.43;;
38399;SDS011;24180;42.676;23.320;2023-05-19T08:59:07;13.80;;;12.50;;
38399;SDS011;24180;42.676;23.320;2023-05-19T09:01:34;14.40;;;12.90;;
38399;SDS011;24180;42.676;23.320;2023-05-19T09:04:00;13.53;;;12.23;;
38399;SDS011;24180;42.676;23.320;2023-05-19T09:06:27;13.77;;;12.23;;
38399;SDS011;24180;42.676;23.320;2023-05-19T09:08:56;14.40;;;12.97;;
38399;SDS011;24180;42.676;23.320;2023-05-19T09:11:22;17.10;;;13.07;;
38399;SDS011;24180;42.676;23.320;2023-05-19T09:13:47;15.20;;;13.90;;
38399;SDS011;24180;42.676;23.320;2023-05-19T09:16:13;13.10;;;11.87;;
38399;SDS011;24180;42.676;23.320;2023-05-19T09:18:39;14.67;;;13.40;;
38399;SDS011;24180;42.676;23.320;2023-05-19T09:21:17;15.43;;;14.17;;
38399;SDS011;24180;42.676;23.320;2023-05-19T09:23:43;15.37;;;13.30;;
38399;SDS011;24180;42.676;23.320;2023-05-19T09:26:11;15.07;;;13.77;;
38399;SDS011;24180;42.676;23.320;2023-05-19T09:28:39;13.97;;;12.20;;
38399;SDS011;24180;42.676;23.320;2023-05-19T09:31:06;13.50;;;12.10;;
38399;SDS011;24180;42.676;23.320;2023-05-19T09:33:33;13.13;;;11.73;;
38399;SDS011;24180;42.676;23.320;2023-05-19T09:36:02;16.73;;;12.23;;
38399;SDS011;24180;42.676;23.320;2023-05-19T09:38:32;20.47;;;13.63;;
38399;SDS011;24180;42.676;23.320;2023-05-19T09:40:59;13.17;;;11.80;;
38399;SDS011;24180;42.676;23.320;2023-05-19T09:43:29;14.80;;;12.97;;
38399;SDS011;24180;42.676;23.320;2023-05-19T09:46:06;12.80;;;11.57;;
38399;SDS011;24180;42.676;23.320;2023-05-19T09:48:34;13.70;;;11.90;;
38399;SDS011;24180;42.676;23.320;2023-05-19T09:51:00;16.02;;;11.80;;
38399;SDS011;24180;42.676;23.320;2023-05-19T09:53:27;12.53;;;11.33;;
38399;SDS011;24180;42.676;23.320;2023-05-19T09:55:54;16.77;;;12.20;;
38399;SDS011;24180;42.676;23.320;2023-05-19T09:58:24;15.20;;;12.82;;
38399;SDS011;24180;42.676;23.320;2023-05-19T10:00:50;13.93;;;12.52;;
38399;SDS011;24180;42.676;23.320;2023-05-19T10:03:19;12.70;;;11.45;;
38399;SDS011;24180;42.676;23.320;2023-05-19T10:05:46;16.08;;;14.48;;
38399;SDS011;24180;42.676;23.320;2023-05-19T10:08:13;13.73;;;12.32;;
38399;SDS011;24180;42.676;23.320;2023-05-19T10:10:41;16.92;;;13.10;;
38399;SDS011;24180;42.676;23.320;2023-05-19T10:13:10;13.02;;;10.75;;
38399;SDS011;24180;42.676;23.320;2023-05-19T10:15:36;14.93;;;12.63;;
38399;SDS011;24180;42.676;23.320;2023-05-19T10:18:02;12.43;;;11.05;;
38399;SDS011;24180;42.676;23.320;2023-05-19T10:20:28;12.57;;;11.27;;
38399;SDS011;24180;42.676;23.320;2023-05-19T10:22:55;12.15;;;11.05;;
38399;SDS011;24180;42.676;23.320;2023-05-19T10:25:20;12.63;;;11.27;;
38399;SDS011;24180;42.676;23.320;2023-05-19T10:27:53;12.48;;;11.27;;
38399;SDS011;24180;42.676;23.320;2023-05-19T10:30:25;27.63;;;13.80;;
38399;SDS011;24180;42.676;23.320;2023-05-19T10:32:54;13.23;;;11.85;;
38399;SDS011;24180;42.676;23.320;2023-05-19T10:35:39;13.48;;;12.00;;
38399;SDS011;24180;42.676;23.320;2023-05-19T10:38:32;22.45;;;15.95;;
38399;SDS011;24180;42.676;23.320;2023-05-19T10:41:15;13.05;;;11.75;;
38399;SDS011;24180;42.676;23.320;2023-05-19T10:46:53;12.13;;;10.93;;
38399;SDS011;24180;42.676;23.320;2023-05-19T10:49:19;11.82;;;10.73;;
38399;SDS011;24180;42.676;23.320;2023-05-19T10:51:46;12.25;;;10.75;;
38399;SDS011;24180;42.676;23.320;2023-05-19T10:54:11;18.38;;;10.57;;
38399;SDS011;24180;42.676;23.320;2023-05-19T10:56:39;10.57;;;9.57;;
38399;SDS011;24180;42.676;23.320;2023-05-19T10:59:28;11.18;;;8.98;;
38399;SDS011;24180;42.676;23.320;2023-05-19T11:01:56;12.82;;;9.90;;
38399;SDS011;24180;42.676;23.320;2023-05-19T11:04:37;13.38;;;12.18;;
38399;SDS011;24180;42.676;23.320;2023-05-19T11:07:17;12.20;;;11.15;;
38399;SDS011;24180;42.676;23.320;2023-05-19T11:09:50;11.95;;;10.60;;
38399;SDS011;24180;42.676;23.320;2023-05-19T11:12:19;13.82;;;12.48;;
38399;SDS011;24180;42.676;23.320;2023-05-19T11:14:46;20.38;;;14.00;;
38399;SDS011;24180;42.676;23.320;2023-05-19T11:17:15;12.48;;;11.40;;
38399;SDS011;24180;42.676;23.320;2023-05-19T11:19:50;12.45;;;10.30;;
38399;SDS011;24180;42.676;23.320;2023-05-19T11:22:21;10.32;;;9.43;;
38399;SDS011;24180;42.676;23.320;2023-05-19T11:24:48;11.63;;;10.40;;
38399;SDS011;24180;42.676;23.320;2023-05-19T11:32:27;12.48;;;11.38;;
38399;SDS011;24180;42.676;23.320;2023-05-19T11:34:55;20.27;;;17.75;;
38399;SDS011;24180;42.676;23.320;2023-05-19T11:37:21;10.85;;;9.90;;
38399;SDS011;24180;42.676;23.320;2023-05-19T11:39:46;19.20;;;11.45;;
38399;SDS011;24180;42.676;23.320;2023-05-19T11:42:12;11.40;;;10.43;;
38399;SDS011;24180;42.676;23.320;2023-05-19T11:44:38;11.60;;;10.50;;
38399;SDS011;24180;42.676;23.320;2023-05-19T11:47:05;11.98;;;10.88;;
38399;SDS011;24180;42.676;23.320;2023-05-19T11:49:31;14.52;;;13.05;;
38399;SDS011;24180;42.676;23.320;2023-05-19T11:51:58;15.88;;;13.95;;
38399;SDS011;24180;42.676;23.320;2023-05-19T11:54:30;12.57;;;11.25;;
38399;SDS011;24180;42.676;23.320;2023-05-19T11:56:59;13.73;;;12.43;;
38399;SDS011;24180;42.676;23.320;2023-05-19T11:59:33;16.20;;;14.50;;
38399;SDS011;24180;42.676;23.320;2023-05-19T12:02:21;17.23;;;15.57;;
38399;SDS011;24180;42.676;23.320;2023-05-19T12:04:46;16.23;;;14.57;;
38399;SDS011;24180;42.676;23.320;2023-05-19T12:07:16;16.97;;;15.30;;
38399;SDS011;24180;42.676;23.320;2023-05-19T12:09:43;15.87;;;14.17;;
38399;SDS011;24180;42.676;23.320;2023-05-19T12:12:11;17.23;;;14.27;;
38399;SDS011;24180;42.676;23.320;2023-05-19T12:14:41;17.87;;;16.17;;
38399;SDS011;24180;42.676;23.320;2023-05-19T12:17:10;18.43;;;14.23;;
38399;SDS011;24180;42.676;23.320;2023-05-19T12:19:37;14.53;;;13.03;;
38399;SDS011;24180;42.676;23.320;2023-05-19T12:22:04;12.60;;;11.50;;
38399;SDS011;24180;42.676;23.320;2023-05-19T12:24:31;13.23;;;11.90;;
38399;SDS011;24180;42.676;23.320;2023-05-19T12:27:05;12.70;;;11.40;;
38399;SDS011;24180;42.676;23.320;2023-05-19T12:29:31;16.40;;;13.37;;
38399;SDS011;24180;42.676;23.320;2023-05-19T12:31:56;17.13;;;12.03;;
38399;SDS011;24180;42.676;23.320;2023-05-19T12:34:22;12.80;;;10.03;;
38399;SDS011;24180;42.676;23.320;2023-05-19T12:36:48;10.57;;;9.20;;
38399;SDS011;24180;42.676;23.320;2023-05-19T12:39:13;12.17;;;10.27;;
38399;SDS011;24180;42.676;23.320;2023-05-19T12:41:39;13.30;;;12.10;;
38399;SDS011;24180;42.676;23.320;2023-05-19T12:44:14;11.80;;;10.80;;
38399;SDS011;24180;42.676;23.320;2023-05-19T12:46:40;10.97;;;9.83;;
38399;SDS011;24180;42.676;23.320;2023-05-19T12:49:05;11.60;;;10.50;;
38399;SDS011;24180;42.676;23.320;2023-05-19T12:51:30;11.17;;;10.07;;
38399;SDS011;24180;42.676;23.320;2023-05-19T12:53:56;10.00;;;9.20;;
38399;SDS011;24180;42.676;23.320;2023-05-19T12:56:23;11.43;;;10.43;;
38399;SDS011;24180;42.676;23.320;2023-05-19T12:58:53;9.80;;;9.00;;
38399;SDS011;24180;42.676;23.320;2023-05-19T13:01:19;9.70;;;8.90;;
38399;SDS011;24180;42.676;23.320;2023-05-19T13:03:46;10.87;;;9.93;;
38399;SDS011;24180;42.676;23.320;2023-05-19T13:06:12;10.97;;;10.03;;
38399;SDS011;24180;42.676;23.320;2023-05-19T13:08:37;10.30;;;9.33;;
38399;SDS011;24180;42.676;23.320;2023-05-19T13:11:06;10.60;;;9.60;;
38399;SDS011;24180;42.676;23.320;2023-05-19T13:13:31;10.37;;;9.37;;
38399;SDS011;24180;42.676;23.320;2023-05-19T13:15:57;12.30;;;10.43;;
38399;SDS011;24180;42.676;23.320;2023-05-19T13:18:22;9.33;;;8.40;;
38399;SDS011;24180;42.676;23.320;2023-05-19T13:20:48;10.67;;;8.00;;
38399;SDS011;24180;42.676;23.320;2023-05-19T13:23:15;9.27;;;7.67;;
38399;SDS011;24180;42.676;23.320;2023-05-19T13:25:40;13.30;;;8.03;;
38399;SDS011;24180;42.676;23.320;2023-05-19T13:28:06;9.47;;;8.40;;
38399;SDS011;24180;42.676;23.320;2023-05-19T13:30:33;12.77;;;8.30;;
38399;SDS011;24180;42.676;23.320;2023-05-19T13:32:59;8.75;;;7.93;;
38399;SDS011;24180;42.676;23.320;2023-05-19T13:35:25;12.73;;;8.55;;
38399;SDS011;24180;42.676;23.320;2023-05-19T13:37:50;11.60;;;8.77;;
38399;SDS011;24180;42.676;23.320;2023-05-19T13:40:16;10.25;;;9.25;;
38399;SDS011;24180;42.676;23.320;2023-05-19T13:42:41;9.50;;;8.52;;
38399;SDS011;24180;42.676;23.320;2023-05-19T13:45:07;10.90;;;9.88;;
38399;SDS011;24180;42.676;23.320;2023-05-19T13:47:33;13.07;;;10.00;;
38399;SDS011;24180;42.676;23.320;2023-05-19T13:49:58;11.07;;;9.50;;
38399;SDS011;24180;42.676;23.320;2023-05-19T13:52:24;11.40;;;8.50;;
38399;SDS011;24180;42.676;23.320;2023-05-19T13:54:52;9.40;;;8.40;;
38399;SDS011;24180;42.676;23.320;2023-05-19T13:57:20;11.53;;;9.33;;
38399;SDS011;24180;42.676;23.320;2023-05-19T13:59:46;10.88;;;9.88;;
38399;SDS011;24180;42.676;23.320;2023-05-19T14:02:11;9.77;;;8.77;;
38399;SDS011;24180;42.676;23.320;2023-05-19T14:04:37;13.02;;;9.05;;
38399;SDS011;24180;42.676;23.320;2023-05-19T14:07:06;11.50;;;10.40;;
38399;SDS011;24180;42.676;23.320;2023-05-19T14:09:32;11.53;;;10.03;;
38399;SDS011;24180;42.676;23.320;2023-05-19T14:11:58;10.00;;;9.07;;
38399;SDS011;24180;42.676;23.320;2023-05-19T14:14:23;11.57;;;10.43;;
38399;SDS011;24180;42.676;23.320;2023-05-19T14:16:49;12.77;;;9.07;;
38399;SDS011;24180;42.676;23.320;2023-05-19T14:19:14;9.10;;;8.20;;
38399;SDS011;24180;42.676;23.320;2023-05-19T14:21:40;10.23;;;8.90;;
38399;SDS011;24180;42.676;23.320;2023-05-19T14:24:05;10.97;;;9.10;;
38399;SDS011;24180;42.676;23.320;2023-05-19T14:26:31;10.35;;;9.00;;
38399;SDS011;24180;42.676;23.320;2023-05-19T14:28:56;13.10;;;10.43;;
38399;SDS011;24180;42.676;23.320;2023-05-19T14:31:22;12.00;;;9.40;;
38399;SDS011;24180;42.676;23.320;2023-05-19T14:33:47;9.70;;;8.77;;
38399;SDS011;24180;42.676;23.320;2023-05-19T14:36:13;10.93;;;8.82;;
38399;SDS011;24180;42.676;23.320;2023-05-19T14:38:38;12.07;;;10.05;;
38399;SDS011;24180;42.676;23.320;2023-05-19T14:41:04;12.63;;;11.32;;
38399;SDS011;24180;42.676;23.320;2023-05-19T14:43:31;12.10;;;10.82;;